Aircraft
UPR1017 PR-BLB B737-800M
SBSN
Santarém - Maestro Wilson Fonseca International Airport
SBCF
Tancredo Neves International Airport
Pilot:: Alex
Aircraft:: 737 Max 8 Passengers
Alternate: SBGR
Network: poscon
FLIGHT DETAILS
Distance: 1214nm Duration 03h 07m
Cruise Speed: Flight Level: 35000
Validation: Pending Validation Type Charter
Flight Fuel
ZFW: 48502
Block Fuel/Initial FOB: 19329
Flight Fuel: 7805
Cargo
Passengers: 158
Cargo: 1600
ROUTE
ROUTE: DCT
REMARKS:
DATE
Date: 26-09-01
Departure Time: 2005
Cargo: 1600
FLIGHT DETAILS
Crashed: No
Validator Comments:
Flight Rating: 89
LANDING ANALYSIS
Landing wind: 300º/8 kt
Landing heading: 158º
Landing VS:: -553 ft/min
Landing IAS:: 116 kt
Landing Force G: 1.4 G
Landing Bank: -1
Landing Pitch: -6
Landing Flaps: 100
Navigation Lights: ON
Landing Lights: ON
Beacon Lights: ON
Strobe Lights: OFF
viserfly

ALTITUDE CHART

viserfly

MAIN EVENTS

DATE EVENT IAS ALTITUDE
2026-09-01 19:57:50 FLYacars version 1.3.6 9 207
2026-09-01 19:57:51 Aircraft boarding in progress 8 207
2026-09-01 19:57:51 FLAPS 37% 8 207
2026-09-01 19:57:51 Navigation Lights ON 8 207
2026-09-01 19:57:51 Beacon Lights ON 8 207
2026-09-01 19:57:51 Landing Lights ON 8 207
2026-09-01 19:57:51 Taxi Lights ON 8 207
2026-09-01 19:57:51 Starting Engine 2 8 207
2026-09-01 19:57:51 Starting Engine 1 8 207
2026-09-01 19:59:25 Aircraft taxiing to runway 12 207
2026-09-01 20:05:56 Detected Take-off roll, HDG 101, IAS 151kt, GS 145kt, G-force 1.1g, Pitch -6.5deg, Bank 0.2deg, Wind 090/13kt, Temp 32°C 151 210
2026-09-01 20:05:56 Airborne 151 210
2026-09-01 20:06:05 Gear UP, IAS 169kt, GS 163kt, ALT 139ft AGL 169 337
2026-09-01 20:06:35 FLAPS 25% 187kt, ALT 1534ft 187 1534
2026-09-01 20:07:20 FLAPS 12% 197kt, ALT 3147ft 197 3147
2026-09-01 20:07:25 FLAPS 0% 201kt, ALT 3282ft 201 3282
2026-09-01 20:10:14 Landing Lights OFF 237 10064
2026-09-01 20:23:32 Aircraft on Top Of Climb at 36517ft, IAS 226kt, GS 409kt, HDG 170deg, TAT -42deg, WIND 265/20kt 226 36517
2026-09-01 22:35:57 Aircraft on Top Of Descent at 34499ft, IAS 231kt, GS 399kt, HDG 172deg, TAT -37deg, WIND 239/41kt 231 34499
2026-09-01 22:57:16 Landing lights OFF below 10000fts 198 8998
2026-09-01 22:57:56 Stall flag 195 7908
2026-09-01 23:05:00 Landing Lights ON 224 5483
2026-09-01 23:06:08 FLAPS 12% 217kt, ALT 5455ft 217 5455
2026-09-01 23:06:51 FLAPS 25% 198kt, ALT 4263ft 198 4263
2026-09-01 23:06:55 FLAPS 37% 198kt, ALT 4156ft 198 4156
2026-09-01 23:09:08 Gear DOWN, IAS 176kt, GS 181kt, ALT 772ft AGL 176 3609
2026-09-01 23:09:37 FLAPS 50% 177kt, ALT 3700ft 177 3700
2026-09-01 23:10:47 FLAPS 62% 167kt, ALT 3875ft 167 3875
2026-09-01 23:10:47 FLAPS 75% 167kt, ALT 3872ft 167 3872
2026-09-01 23:10:48 FLAPS 87% 168kt, ALT 3866ft 168 3866
2026-09-01 23:11:34 FLAPS 100% 145kt, ALT 3484ft 145 3484
2026-09-01 23:13:31 Landed at destination with a landing rate of -553fpm, G-force 1.4g, Pitch -5.5deg, Bank -1.4deg, HDG 158deg, IAS 116kt, GS 134kt, Wind 300/08kt, Temp 30°C 116 2809
2026-09-01 23:13:54 FLAPS 87% 29 2810
2026-09-01 23:13:54 FLAPS 75% 29 2810
2026-09-01 23:13:55 FLAPS 62% 29 2810
2026-09-01 23:13:55 FLAPS 50% 28 2810
2026-09-01 23:13:55 FLAPS 37% 28 2810
2026-09-01 23:13:59 FLAPS 25% 24 2810
2026-09-01 23:13:59 FLAPS 12% 24 2810
2026-09-01 23:13:59 FLAPS 0% 24 2810
2026-09-01 23:14:03 Aircraft taxiing to apron 16 2811
2026-09-01 23:15:33 Aircraft at gate/stand, ground services are moving into position, disembarkation has begun. Remaining FOB 11524kg FLYacars v1.3.6 0 2813
viserfly

ACARS DATA

DATE IAS GS ALTITUDE FUEL CONSUMED OAT FLIGHT STATUS
2026-09-01 19:58:21 8 0 207 5 32 BOARDING
2026-09-01 19:58:51 9 0 207 9 32 BOARDING
2026-09-01 19:59:21 9 0 207 15 32 BOARDING
2026-09-01 19:59:51 0 7 207 24 32 TAXI TO RUNWAY
2026-09-01 20:00:21 0 0 207 29 32 TAXI TO RUNWAY
2026-09-01 20:00:51 0 2 207 37 32 TAXI TO RUNWAY
2026-09-01 20:01:21 0 0 207 42 32 TAXI TO RUNWAY
2026-09-01 20:01:51 0 0 207 47 32 TAXI TO RUNWAY
2026-09-01 20:02:21 0 0 207 51 32 TAXI TO RUNWAY
2026-09-01 20:02:51 0 0 207 56 32 TAXI TO RUNWAY
2026-09-01 20:03:21 2 16 209 67 32 TAXI TO RUNWAY
2026-09-01 20:03:51 32 47 207 79 32 TAXI TO RUNWAY
2026-09-01 20:04:21 25 40 209 85 32 TAXI TO RUNWAY
2026-09-01 20:04:51 0 2 206 90 32 TAXI TO RUNWAY
2026-09-01 20:05:21 16 4 206 100 32 TAXI TO RUNWAY
2026-09-01 20:05:51 132 125 209 132 32 TAKEOFF
2026-09-01 20:06:21 179 176 877 163 31 TAKEOFF
2026-09-01 20:06:51 188 192 2240 195 25 INITIAL CLIMB
2026-09-01 20:07:21 197 205 3147 223 23 CLIMB
2026-09-01 20:07:51 231 237 4048 250 21 CLIMB
2026-09-01 20:08:21 243 252 4989 274 19 CLIMB
2026-09-01 20:08:51 240 254 6069 298 18 CLIMB
2026-09-01 20:09:21 237 258 7541 325 15 CLIMB
2026-09-01 20:09:51 237 264 8949 351 12 CLIMB
2026-09-01 20:10:21 236 268 10354 378 10 CLIMB
2026-09-01 20:10:51 231 271 11743 405 7 CLIMB
2026-09-01 20:11:21 221 274 13817 446 2 CLIMB
2026-09-01 20:11:51 225 292 15905 500 0 CLIMB
2026-09-01 20:12:21 235 312 17817 554 -1 CLIMB
2026-09-01 20:12:51 211 293 20533 608 -6 CLIMB
2026-09-01 20:13:21 218 308 22180 664 -9 CLIMB
2026-09-01 20:13:51 235 330 23378 718 -12 CLIMB
2026-09-01 20:14:21 233 337 24881 765 -15 CLIMB
2026-09-01 20:14:51 232 340 25733 793 -16 CLIMB
2026-09-01 20:15:21 231 342 26581 820 -18 CLIMB
2026-09-01 20:15:51 245 366 26726 847 -19 ENROUTE
2026-09-01 20:16:21 254 381 27119 874 -20 CLIMB
2026-09-01 20:16:51 253 385 27865 901 -21 CLIMB
2026-09-01 20:17:21 251 388 28604 928 -23 CLIMB
2026-09-01 20:17:51 249 392 29298 956 -24 CLIMB
2026-09-01 20:18:21 248 397 29956 983 -26 CLIMB
2026-09-01 20:18:51 247 401 30582 1010 -27 CLIMB
2026-09-01 20:19:21 247 406 31187 1037 -29 CLIMB
2026-09-01 20:19:51 250 414 31651 1064 -30 CLIMB
2026-09-01 20:20:21 258 428 31863 1090 -30 CLIMB
2026-09-01 20:20:51 252 424 32725 1117 -32 CLIMB
2026-09-01 20:21:21 245 420 33583 1144 -35 CLIMB
2026-09-01 20:21:51 239 416 34383 1171 -37 CLIMB
2026-09-01 20:22:21 234 414 35101 1197 -39 CLIMB
2026-09-01 20:22:51 230 412 35763 1223 -40 CLIMB
2026-09-01 20:23:21 227 411 36374 1249 -42 CLIMB
2026-09-01 20:23:51 222 405 36521 1268 -42 ENROUTE
2026-09-01 20:24:21 220 401 36522 1287 -42 ENROUTE
2026-09-01 20:24:51 218 399 36526 1307 -42 ENROUTE
2026-09-01 20:25:21 220 402 36529 1328 -42 ENROUTE
2026-09-01 20:25:51 230 417 36555 1354 -42 ENROUTE
2026-09-01 20:26:21 240 433 36552 1380 -42 ENROUTE
2026-09-01 20:26:51 248 446 36552 1404 -42 ENROUTE
2026-09-01 20:27:21 250 449 36547 1426 -42 ENROUTE
2026-09-01 20:27:51 250 446 36558 1446 -42 ENROUTE
2026-09-01 20:28:21 250 446 36548 1467 -42 ENROUTE
2026-09-01 20:28:51 250 447 36549 1488 -42 ENROUTE
2026-09-01 20:29:21 250 447 36548 1509 -42 ENROUTE
2026-09-01 20:29:51 250 447 36544 1529 -42 ENROUTE
2026-09-01 20:30:21 250 447 36539 1550 -42 ENROUTE
2026-09-01 20:30:51 250 446 36536 1571 -42 ENROUTE
2026-09-01 20:31:21 250 447 36537 1591 -42 ENROUTE
2026-09-01 20:31:51 250 446 36538 1612 -42 ENROUTE
2026-09-01 20:32:21 250 446 36538 1633 -42 ENROUTE
2026-09-01 20:32:51 251 445 36541 1653 -42 ENROUTE
2026-09-01 20:33:21 250 444 36539 1673 -42 ENROUTE
2026-09-01 20:33:51 250 443 36538 1694 -42 ENROUTE
2026-09-01 20:34:21 250 443 36538 1715 -42 ENROUTE
2026-09-01 20:34:51 250 443 36538 1735 -42 ENROUTE
2026-09-01 20:35:21 251 443 36539 1756 -42 ENROUTE
2026-09-01 20:35:51 250 442 36540 1776 -42 ENROUTE
2026-09-01 20:36:21 250 442 36539 1797 -42 ENROUTE
2026-09-01 20:36:51 250 442 36540 1818 -42 ENROUTE
2026-09-01 20:37:21 250 442 36539 1838 -42 ENROUTE
2026-09-01 20:37:51 251 441 36539 1859 -42 ENROUTE
2026-09-01 20:38:21 250 440 36534 1879 -42 ENROUTE
2026-09-01 20:38:51 250 440 36533 1900 -42 ENROUTE
2026-09-01 20:39:21 250 440 36533 1921 -42 ENROUTE
2026-09-01 20:39:51 250 441 36534 1941 -42 ENROUTE
2026-09-01 20:40:21 250 441 36535 1962 -42 ENROUTE
2026-09-01 20:40:51 252 436 36533 1981 -42 ENROUTE
2026-09-01 20:41:21 253 436 36533 2002 -42 ENROUTE
2026-09-01 20:41:51 251 434 36533 2022 -42 ENROUTE
2026-09-01 20:42:21 249 434 36530 2043 -42 ENROUTE
2026-09-01 20:42:51 250 435 36530 2064 -42 ENROUTE
2026-09-01 20:43:21 252 433 36532 2084 -42 ENROUTE
2026-09-01 20:43:51 250 432 36532 2104 -42 ENROUTE
2026-09-01 20:44:21 250 432 36531 2125 -42 ENROUTE
2026-09-01 20:44:51 250 432 36531 2146 -42 ENROUTE
2026-09-01 20:45:21 250 432 36530 2166 -42 ENROUTE
2026-09-01 20:45:51 250 432 36531 2187 -42 ENROUTE
2026-09-01 20:46:21 250 432 36531 2207 -42 ENROUTE
2026-09-01 20:46:51 250 432 36533 2228 -42 ENROUTE
2026-09-01 20:47:21 250 432 36533 2249 -42 ENROUTE
2026-09-01 20:47:51 250 432 36533 2269 -42 ENROUTE
2026-09-01 20:48:21 250 432 36531 2290 -42 ENROUTE
2026-09-01 20:48:51 250 429 36529 2310 -42 ENROUTE
2026-09-01 20:49:21 250 429 36528 2330 -42 ENROUTE
2026-09-01 20:49:51 250 429 36525 2351 -42 ENROUTE
2026-09-01 20:50:21 250 429 36525 2372 -42 ENROUTE
2026-09-01 20:50:51 250 429 36526 2392 -42 ENROUTE
2026-09-01 20:51:21 251 428 36528 2413 -42 ENROUTE
2026-09-01 20:51:51 250 427 36528 2433 -42 ENROUTE
2026-09-01 20:52:21 250 426 36527 2453 -42 ENROUTE
2026-09-01 20:52:51 250 426 36527 2474 -42 ENROUTE
2026-09-01 20:53:21 250 426 36527 2495 -42 ENROUTE
2026-09-01 20:53:51 250 426 36528 2516 -42 ENROUTE
2026-09-01 20:54:21 250 426 36529 2536 -42 ENROUTE
2026-09-01 20:54:51 250 426 36530 2557 -42 ENROUTE
2026-09-01 20:55:21 250 426 36529 2577 -42 ENROUTE
2026-09-01 20:55:51 250 426 36531 2598 -42 ENROUTE
2026-09-01 20:56:21 251 426 36531 2619 -42 ENROUTE
2026-09-01 20:56:51 250 425 36532 2639 -42 ENROUTE
2026-09-01 20:57:21 250 424 36531 2659 -42 ENROUTE
2026-09-01 20:57:51 250 424 36532 2680 -42 ENROUTE
2026-09-01 20:58:21 250 424 36532 2701 -42 ENROUTE
2026-09-01 20:58:51 250 424 36531 2721 -42 ENROUTE
2026-09-01 20:59:21 251 423 36525 2741 -42 ENROUTE
2026-09-01 20:59:51 250 422 36525 2762 -42 ENROUTE
2026-09-01 21:00:21 250 422 36523 2782 -42 ENROUTE
2026-09-01 21:00:51 250 422 36523 2803 -42 ENROUTE
2026-09-01 21:01:21 250 422 36524 2824 -42 ENROUTE
2026-09-01 21:01:51 251 421 36526 2844 -42 ENROUTE
2026-09-01 21:02:21 250 420 36526 2865 -42 ENROUTE
2026-09-01 21:02:51 250 420 36522 2885 -42 ENROUTE
2026-09-01 21:03:21 250 420 36522 2906 -42 ENROUTE
2026-09-01 21:03:51 250 420 36524 2927 -42 ENROUTE
2026-09-01 21:04:21 250 420 36525 2947 -42 ENROUTE
2026-09-01 21:04:51 250 420 36525 2968 -42 ENROUTE
2026-09-01 21:05:21 250 420 36526 2988 -42 ENROUTE
2026-09-01 21:05:51 250 420 36526 3009 -42 ENROUTE
2026-09-01 21:06:21 250 420 36528 3030 -42 ENROUTE
2026-09-01 21:06:51 250 420 36528 3050 -42 ENROUTE
2026-09-01 21:07:21 250 421 36527 3071 -42 ENROUTE
2026-09-01 21:07:51 250 421 36529 3092 -42 ENROUTE
2026-09-01 21:08:21 250 421 36528 3112 -42 ENROUTE
2026-09-01 21:08:51 250 420 36530 3133 -42 ENROUTE
2026-09-01 21:09:21 250 421 36529 3154 -42 ENROUTE
2026-09-01 21:09:51 250 421 36522 3174 -42 ENROUTE
2026-09-01 21:10:21 250 422 36522 3195 -42 ENROUTE
2026-09-01 21:10:51 251 422 36523 3216 -42 ENROUTE
2026-09-01 21:11:21 251 422 36524 3236 -42 ENROUTE
2026-09-01 21:11:51 251 422 36524 3257 -42 ENROUTE
2026-09-01 21:12:21 251 422 36525 3278 -42 ENROUTE
2026-09-01 21:12:51 251 421 36526 3298 -42 ENROUTE
2026-09-01 21:13:21 251 421 36525 3319 -42 ENROUTE
2026-09-01 21:13:51 251 422 36525 3340 -42 ENROUTE
2026-09-01 21:14:21 251 422 36527 3360 -42 ENROUTE
2026-09-01 21:14:51 250 422 36527 3381 -42 ENROUTE
2026-09-01 21:15:21 251 422 36527 3402 -42 ENROUTE
2026-09-01 21:15:51 251 423 36528 3422 -42 ENROUTE
2026-09-01 21:16:21 251 423 36529 3443 -42 ENROUTE
2026-09-01 21:16:51 251 423 36530 3464 -42 ENROUTE
2026-09-01 21:17:21 251 423 36530 3484 -42 ENROUTE
2026-09-01 21:17:51 251 423 36530 3505 -42 ENROUTE
2026-09-01 21:18:21 251 423 36531 3525 -42 ENROUTE
2026-09-01 21:18:51 251 423 36531 3546 -42 ENROUTE
2026-09-01 21:19:21 251 423 36532 3567 -42 ENROUTE
2026-09-01 21:19:51 251 423 36533 3587 -42 ENROUTE
2026-09-01 21:20:21 251 423 36534 3608 -42 ENROUTE
2026-09-01 21:20:51 251 423 36535 3629 -42 ENROUTE
2026-09-01 21:21:21 251 423 36536 3649 -42 ENROUTE
2026-09-01 21:21:51 251 423 36536 3670 -42 ENROUTE
2026-09-01 21:22:21 251 424 36536 3690 -42 ENROUTE
2026-09-01 21:22:51 251 423 36529 3711 -42 ENROUTE
2026-09-01 21:23:21 250 421 36527 3731 -42 ENROUTE
2026-09-01 21:23:51 250 421 36525 3751 -42 ENROUTE
2026-09-01 21:24:21 250 421 36524 3772 -42 ENROUTE
2026-09-01 21:24:51 250 421 36525 3793 -42 ENROUTE
2026-09-01 21:25:21 250 421 36525 3813 -42 ENROUTE
2026-09-01 21:25:51 250 421 36526 3834 -42 ENROUTE
2026-09-01 21:26:21 250 421 36526 3854 -42 ENROUTE
2026-09-01 21:26:51 250 421 36527 3875 -42 ENROUTE
2026-09-01 21:27:21 250 421 36527 3896 -42 ENROUTE
2026-09-01 21:27:51 250 421 36528 3916 -42 ENROUTE
2026-09-01 21:28:21 250 421 36528 3937 -42 ENROUTE
2026-09-01 21:28:51 251 421 36525 3958 -42 ENROUTE
2026-09-01 21:29:21 250 421 36526 3978 -42 ENROUTE
2026-09-01 21:29:51 250 421 36526 3999 -42 ENROUTE
2026-09-01 21:30:21 250 421 36526 4019 -42 ENROUTE
2026-09-01 21:30:51 250 421 36526 4040 -42 ENROUTE
2026-09-01 21:31:21 251 421 36522 4061 -42 ENROUTE
2026-09-01 21:31:51 250 421 36523 4081 -42 ENROUTE
2026-09-01 21:32:21 250 421 36523 4102 -42 ENROUTE
2026-09-01 21:32:51 250 422 36523 4123 -42 ENROUTE
2026-09-01 21:33:21 251 422 36519 4143 -42 ENROUTE
2026-09-01 21:33:51 251 422 36520 4164 -42 ENROUTE
2026-09-01 21:34:21 251 422 36521 4185 -42 ENROUTE
2026-09-01 21:34:51 251 422 36521 4205 -42 ENROUTE
2026-09-01 21:35:21 250 422 36520 4226 -42 ENROUTE
2026-09-01 21:35:51 251 423 36521 4247 -42 ENROUTE
2026-09-01 21:36:21 251 423 36522 4267 -42 ENROUTE
2026-09-01 21:36:51 251 423 36523 4288 -42 ENROUTE
2026-09-01 21:37:21 251 423 36523 4309 -42 ENROUTE
2026-09-01 21:37:51 251 423 36524 4329 -42 ENROUTE
2026-09-01 21:38:21 251 423 36524 4350 -42 ENROUTE
2026-09-01 21:38:51 251 423 36518 4370 -42 ENROUTE
2026-09-01 21:39:21 251 423 36518 4391 -42 ENROUTE
2026-09-01 21:39:51 251 423 36519 4412 -42 ENROUTE
2026-09-01 21:40:21 251 424 36519 4432 -42 ENROUTE
2026-09-01 21:40:51 251 424 36520 4453 -42 ENROUTE
2026-09-01 21:41:21 251 424 36519 4474 -42 ENROUTE
2026-09-01 21:41:51 251 424 36519 4494 -42 ENROUTE
2026-09-01 21:42:21 251 424 36519 4515 -42 ENROUTE
2026-09-01 21:42:51 251 425 36520 4536 -42 ENROUTE
2026-09-01 21:43:21 251 425 36517 4557 -42 ENROUTE
2026-09-01 21:43:51 251 425 36518 4577 -42 ENROUTE
2026-09-01 21:44:21 251 425 36519 4598 -42 ENROUTE
2026-09-01 21:44:51 251 425 36520 4618 -42 ENROUTE
2026-09-01 21:45:21 251 426 36516 4639 -42 ENROUTE
2026-09-01 21:45:51 251 426 36516 4660 -42 ENROUTE
2026-09-01 21:46:21 251 426 36517 4680 -42 ENROUTE
2026-09-01 21:46:51 251 426 36518 4701 -42 ENROUTE
2026-09-01 21:47:21 251 426 36518 4722 -42 ENROUTE
2026-09-01 21:47:51 251 427 36517 4743 -42 ENROUTE
2026-09-01 21:48:21 251 427 36516 4763 -42 ENROUTE
2026-09-01 21:48:51 251 426 36513 4783 -42 ENROUTE
2026-09-01 21:49:21 250 425 36510 4804 -42 ENROUTE
2026-09-01 21:49:51 250 425 36508 4824 -42 ENROUTE
2026-09-01 21:50:21 250 425 36508 4845 -42 ENROUTE
2026-09-01 21:50:51 250 425 36508 4865 -42 ENROUTE
2026-09-01 21:51:21 250 425 36508 4886 -42 ENROUTE
2026-09-01 21:51:51 250 425 36509 4907 -42 ENROUTE
2026-09-01 21:52:21 250 426 36509 4927 -42 ENROUTE
2026-09-01 21:52:51 250 425 36510 4948 -42 ENROUTE
2026-09-01 21:53:21 250 425 36511 4968 -42 ENROUTE
2026-09-01 21:53:51 250 425 36511 4989 -42 ENROUTE
2026-09-01 21:54:21 250 425 36511 5010 -42 ENROUTE
2026-09-01 21:54:51 250 426 36512 5030 -42 ENROUTE
2026-09-01 21:55:21 250 426 36512 5051 -42 ENROUTE
2026-09-01 21:55:51 250 426 36512 5071 -42 ENROUTE
2026-09-01 21:56:21 250 426 36513 5092 -42 ENROUTE
2026-09-01 21:56:51 250 426 36514 5112 -42 ENROUTE
2026-09-01 21:57:21 250 427 36504 5133 -42 ENROUTE
2026-09-01 21:57:51 251 427 36505 5154 -42 ENROUTE
2026-09-01 21:58:21 251 427 36505 5174 -42 ENROUTE
2026-09-01 21:58:51 251 427 36505 5195 -42 ENROUTE
2026-09-01 21:59:21 250 427 36498 5215 -42 ENROUTE
2026-09-01 21:59:51 251 428 36500 5236 -42 ENROUTE
2026-09-01 22:00:21 251 427 36500 5256 -42 ENROUTE
2026-09-01 22:00:51 251 427 36500 5277 -42 ENROUTE
2026-09-01 22:01:21 251 427 36501 5298 -42 ENROUTE
2026-09-01 22:01:51 251 427 36502 5318 -42 ENROUTE
2026-09-01 22:02:21 251 427 36502 5339 -42 ENROUTE
2026-09-01 22:02:51 251 427 36503 5359 -42 ENROUTE
2026-09-01 22:03:21 251 427 36502 5380 -42 ENROUTE
2026-09-01 22:03:51 250 426 36503 5400 -42 ENROUTE
2026-09-01 22:04:21 250 426 36499 5421 -42 ENROUTE
2026-09-01 22:04:51 250 426 36501 5441 -42 ENROUTE
2026-09-01 22:05:21 250 426 36501 5462 -42 ENROUTE
2026-09-01 22:05:51 250 427 36501 5482 -42 ENROUTE
2026-09-01 22:06:21 250 428 36497 5503 -42 ENROUTE
2026-09-01 22:06:51 250 428 36499 5524 -42 ENROUTE
2026-09-01 22:07:21 250 428 36498 5544 -42 ENROUTE
2026-09-01 22:07:51 250 424 36495 5565 -42 ENROUTE
2026-09-01 22:08:21 250 425 36497 5586 -42 ENROUTE
2026-09-01 22:08:51 250 426 36494 5606 -42 ENROUTE
2026-09-01 22:09:21 250 426 36495 5627 -42 ENROUTE
2026-09-01 22:09:51 250 426 36495 5648 -42 ENROUTE
2026-09-01 22:10:21 250 426 36498 5668 -42 ENROUTE
2026-09-01 22:10:51 250 426 36492 5689 -42 ENROUTE
2026-09-01 22:11:21 251 426 36493 5709 -42 ENROUTE
2026-09-01 22:11:51 250 427 36486 5730 -42 ENROUTE
2026-09-01 22:12:21 251 427 36489 5750 -42 ENROUTE
2026-09-01 22:12:51 251 427 36487 5771 -42 ENROUTE
2026-09-01 22:13:21 251 427 36483 5791 -42 ENROUTE
2026-09-01 22:13:51 251 427 36482 5812 -42 ENROUTE
2026-09-01 22:14:21 251 426 36483 5832 -42 ENROUTE
2026-09-01 22:14:51 251 427 36485 5853 -42 ENROUTE
2026-09-01 22:15:21 251 427 36477 5874 -42 ENROUTE
2026-09-01 22:15:51 251 427 36478 5894 -42 ENROUTE
2026-09-01 22:16:21 251 441 36481 5915 -42 ENROUTE
2026-09-01 22:16:51 250 439 36475 5935 -42 ENROUTE
2026-09-01 22:17:21 250 439 36473 5956 -42 ENROUTE
2026-09-01 22:17:51 250 440 36473 5976 -42 ENROUTE
2026-09-01 22:18:21 250 440 36476 5997 -42 ENROUTE
2026-09-01 22:18:51 250 440 36471 6017 -42 ENROUTE
2026-09-01 22:19:21 250 439 36472 6038 -42 ENROUTE
2026-09-01 22:19:51 250 440 36462 6058 -42 ENROUTE
2026-09-01 22:20:21 250 441 36465 6079 -42 ENROUTE
2026-09-01 22:20:51 251 441 36466 6100 -42 ENROUTE
2026-09-01 22:21:21 250 441 36467 6120 -42 ENROUTE
2026-09-01 22:21:51 251 441 36467 6140 -42 ENROUTE
2026-09-01 22:22:21 250 438 36464 6161 -42 ENROUTE
2026-09-01 22:22:51 250 438 36458 6182 -42 ENROUTE
2026-09-01 22:23:21 251 438 36460 6202 -42 ENROUTE
2026-09-01 22:23:51 251 438 36462 6223 -42 ENROUTE
2026-09-01 22:24:21 250 438 36462 6243 -42 ENROUTE
2026-09-01 22:24:51 250 438 36463 6264 -42 ENROUTE
2026-09-01 22:25:21 251 438 36462 6285 -42 ENROUTE
2026-09-01 22:25:51 251 438 36453 6305 -42 ENROUTE
2026-09-01 22:26:21 251 438 36455 6325 -42 ENROUTE
2026-09-01 22:26:51 251 439 36455 6346 -42 ENROUTE
2026-09-01 22:27:21 251 439 36454 6367 -42 ENROUTE
2026-09-01 22:27:51 251 439 36455 6387 -42 ENROUTE
2026-09-01 22:28:21 251 439 36456 6408 -42 ENROUTE
2026-09-01 22:28:51 250 439 36455 6428 -42 ENROUTE
2026-09-01 22:29:21 251 440 36452 6449 -42 ENROUTE
2026-09-01 22:29:51 251 440 36449 6470 -42 ENROUTE
2026-09-01 22:30:21 251 437 36457 6490 -42 ENROUTE
2026-09-01 22:30:51 251 437 36450 6511 -42 ENROUTE
2026-09-01 22:31:21 251 438 36440 6531 -42 ENROUTE
2026-09-01 22:31:51 251 438 36441 6552 -42 ENROUTE
2026-09-01 22:32:21 251 438 36442 6572 -42 ENROUTE
2026-09-01 22:32:51 251 438 36442 6593 -42 ENROUTE
2026-09-01 22:33:21 251 439 36397 6613 -42 DESCENT
2026-09-01 22:33:51 243 424 36062 6621 -41 DESCENT
2026-09-01 22:34:21 234 408 35712 6626 -40 DESCENT
2026-09-01 22:34:51 230 400 35370 6638 -40 DESCENT
2026-09-01 22:35:21 229 398 35050 6655 -39 DESCENT
2026-09-01 22:35:51 231 399 34609 6671 -38 DESCENT
2026-09-01 22:36:21 233 400 34117 6687 -37 DESCENT
2026-09-01 22:36:51 236 402 33630 6703 -35 DESCENT
2026-09-01 22:37:21 238 404 33146 6719 -34 DESCENT
2026-09-01 22:37:51 240 405 32663 6736 -33 DESCENT
2026-09-01 22:38:21 243 408 32163 6752 -32 DESCENT
2026-09-01 22:38:51 245 410 31629 6768 -30 DESCENT
2026-09-01 22:39:21 248 412 31096 6785 -29 DESCENT
2026-09-01 22:39:51 251 414 30565 6801 -28 DESCENT
2026-09-01 22:40:21 254 416 30032 6818 -27 DESCENT
2026-09-01 22:40:51 257 419 29499 6835 -26 DESCENT
2026-09-01 22:41:21 260 421 28968 6852 -25 DESCENT
2026-09-01 22:41:51 263 423 28434 6869 -24 DESCENT
2026-09-01 22:42:21 265 426 27902 6887 -23 DESCENT
2026-09-01 22:42:51 268 428 27367 6904 -22 DESCENT
2026-09-01 22:43:21 272 431 26833 6922 -21 DESCENT
2026-09-01 22:43:51 275 433 26300 6939 -21 DESCENT
2026-09-01 22:44:21 276 439 25776 6957 -19 DESCENT
2026-09-01 22:44:51 278 441 25238 6974 -18 DESCENT
2026-09-01 22:45:21 278 439 24697 6990 -17 DESCENT
2026-09-01 22:45:51 279 437 24153 7007 -16 DESCENT
2026-09-01 22:46:21 280 433 23605 7022 -15 DESCENT
2026-09-01 22:46:51 280 430 23059 7037 -14 DESCENT
2026-09-01 22:47:21 280 426 22511 7052 -13 DESCENT
2026-09-01 22:47:51 280 422 21964 7067 -12 DESCENT
2026-09-01 22:48:21 280 418 21415 7082 -11 DESCENT
2026-09-01 22:48:51 275 410 20859 7093 -9 DESCENT
2026-09-01 22:49:21 266 394 20288 7098 -8 DESCENT
2026-09-01 22:49:51 260 382 19711 7103 -7 DESCENT
2026-09-01 22:50:21 255 372 19138 7107 -6 DESCENT
2026-09-01 22:50:51 250 363 18567 7112 -5 DESCENT
2026-09-01 22:51:21 247 355 17998 7117 -4 DESCENT
2026-09-01 22:51:51 243 349 17426 7122 -3 DESCENT
2026-09-01 22:52:21 241 343 16865 7126 -2 DESCENT
2026-09-01 22:52:51 239 338 16304 7131 -1 DESCENT
2026-09-01 22:53:21 229 321 15644 7136 0 DESCENT
2026-09-01 22:53:51 212 296 14729 7141 0 DESCENT
2026-09-01 22:54:21 203 280 13830 7145 2 DESCENT
2026-09-01 22:54:51 197 270 12956 7152 4 DESCENT
2026-09-01 22:55:21 197 267 12118 7163 6 DESCENT
2026-09-01 22:55:51 197 263 11296 7174 7 DESCENT
2026-09-01 22:56:21 196 259 10486 7185 9 DESCENT
2026-09-01 22:56:51 197 259 9681 7196 11 DESCENT
2026-09-01 22:57:21 197 256 8879 7207 14 DESCENT
2026-09-01 22:57:51 197 254 8074 7218 16 DESCENT
2026-09-01 22:58:21 202 255 7322 7232 18 DESCENT
2026-09-01 22:58:51 211 263 6594 7246 20 DESCENT
2026-09-01 22:59:21 225 276 5887 7257 23 DESCENT
2026-09-01 22:59:51 223 271 5512 7264 24 ENROUTE
2026-09-01 23:00:21 220 271 5529 7279 23 ENROUTE
2026-09-01 23:00:51 224 272 5508 7294 23 ENROUTE
2026-09-01 23:01:21 228 273 5504 7308 23 ENROUTE
2026-09-01 23:01:51 226 274 5504 7322 23 ENROUTE
2026-09-01 23:02:21 225 273 5504 7335 23 ENROUTE
2026-09-01 23:02:51 227 274 5503 7349 23 ENROUTE
2026-09-01 23:03:21 225 272 5503 7362 23 ENROUTE
2026-09-01 23:03:51 226 277 5492 7377 23 ENROUTE
2026-09-01 23:04:21 226 276 5496 7390 23 ENROUTE
2026-09-01 23:04:51 226 276 5497 7404 23 ENROUTE
2026-09-01 23:05:21 221 271 5497 7419 23 ENROUTE
2026-09-01 23:05:51 217 267 5488 7433 23 ENROUTE
2026-09-01 23:06:21 207 240 5311 7443 24 DESCENT
2026-09-01 23:06:51 198 209 4280 7447 27 APPROACH
2026-09-01 23:07:21 199 200 3699 7459 29 APPROACH
2026-09-01 23:07:51 178 180 3792 7477 29 APPROACH
2026-09-01 23:08:21 177 173 3892 7497 28 ON FINAL
2026-09-01 23:08:51 178 181 3683 7524 29 ON FINAL
2026-09-01 23:09:21 176 163 3963 7564 28 APPROACH
2026-09-01 23:09:51 173 171 3799 7601 29 APPROACH
2026-09-01 23:10:21 179 204 3707 7627 29 APPROACH
2026-09-01 23:10:51 167 196 3832 7650 29 APPROACH
2026-09-01 23:11:21 137 167 3605 7671 30 ON FINAL
2026-09-01 23:11:51 144 170 3309 7698 30 ON FINAL
2026-09-01 23:12:21 138 167 3426 7727 30 ON FINAL
2026-09-01 23:12:51 135 163 3301 7753 30 ON FINAL
2026-09-01 23:13:21 121 145 2886 7773 30 ON FINAL
2026-09-01 23:13:51 37 53 2811 7783 30 ON FINAL
2026-09-01 23:14:21 0 6 2812 7791 30 TAXI TO APRON
2026-09-01 23:14:51 1 15 2812 7801 30 TAXI TO APRON
2026-09-01 23:15:21 0 0 2813 7805 30 TAXI TO APRON
  • Join our VA!

    It has been 11 years of great learning, friendships, and stories.

  • Sign up now!